Página principal
METAR-TAF:

METAR-TAF

Aeroportos :

Platinum, Alasca, Estados Unidos

latitude: 59-01N, longitude: 161-49W, altura: 3 m

Observação actual do tempo

O boletim foi feito há 31 minutos, às 20:56 UTC
Vento 5 kt de oes-sudoeste
Temperatura 6°C
Humidade 93%
Pressão 1023 hPa
Visibilidade: 4.8 km
Encobertoa uma altura de 100 ft
neblina

METAR: PAPM 152056Z AUTO 24005KT 3SM BR OVC001 06/05 A3022 RMK AO2 SLP236 60000 T00560050 58002

Hora: 13:27 (21:27 UTC)


TAF: em falta

Observações e previsões do tempo de mais de 4000 aeroportos (mensagens METAR e TAF).

As estações disponíveis são os pontos amarelos e vermelhos sobre o mapa.

Mova o rato sobre o mapa para ver o nome da estação.

Depois clique no ponto para visualizar as observações e previsões meteorológicas.

Para alterar o mapa : clique nos botões verdes com uma cruz preta para aumentar o zoom; no botão verde com uma pitada de zoom; ou nas setas verdes para mapas adjacentes.


METAR-TAF: